Time;durP1;ratioP1;P1;durP2;ratioP2;P2;SDS_P1;SDS_P2;PMS_P1;PMS_P2;Temp;Humidity;BMP_temperature;BMP_pressure;BME280_temperature;BME280_humidity;BME280_pressure;Samples;Min_cycle;Max_cycle;Signal;HPM_P1;HPM_P2
2021/03/26 00:01:01;;;;;;;92.37;52.60;;;;;;;;;;4321209;33;20669;-55
2021/03/26 00:03:29;;;;;;;90.73;51.87;;;;;;;;;;4327453;33;20253;-57
2021/03/26 00:06:03;;;;;;;100.13;51.77;;;;;;;;;;4327603;33;20306;-55
2021/03/26 00:08:30;;;;;;;83.20;46.47;;;;;;;;;;4326497;33;20238;-55
2021/03/26 00:10:56;;;;;;;90.97;46.60;;;;;;;;;;4327321;33;20218;-57
2021/03/26 00:13:21;;;;;;;103.47;53.67;;;;;;;;;;4327101;33;20277;-57
2021/03/26 00:15:47;;;;;;;103.17;56.73;;;;;;;;;;4329621;33;20227;-57
2021/03/26 00:18:13;;;;;;;112.07;58.37;;;;;;;;;;4321535;33;20339;-56
2021/03/26 00:20:38;;;;;;;125.97;66.43;;;;;;;;;;4320725;33;20736;-57
2021/03/26 00:23:05;;;;;;;150.27;81.83;;;;;;;;;;4313840;33;20795;-56
2021/03/26 00:25:31;;;;;;;149.40;80.73;;;;;;;;;;4328199;33;20262;-57
2021/03/26 00:27:57;;;;;;;160.27;80.63;;;;;;;;;;4322068;33;20309;-58
2021/03/26 00:30:23;;;;;;;132.83;73.90;;;;;;;;;;4326263;33;20583;-57
2021/03/26 00:32:49;;;;;;;139.40;72.13;;;;;;;;;;4327302;33;20376;-55
2021/03/26 00:35:17;;;;;;;140.80;73.77;;;;;;;;;;4313972;33;20551;-55
2021/03/26 00:37:43;;;;;;;115.17;62.20;;;;;;;;;;4327541;33;20245;-56
2021/03/26 00:40:12;;;;;;;116.87;62.60;;;;;;;;;;4325943;33;20326;-55
2021/03/26 00:42:38;;;;;;;110.93;59.27;;;;;;;;;;4327658;33;20640;-55
2021/03/26 00:45:06;;;;;;;112.93;57.27;;;;;;;;;;4327216;33;20270;-57
2021/03/26 00:47:32;;;;;;;107.50;56.77;;;;;;;;;;4312354;33;20249;-57
2021/03/26 00:49:57;;;;;;;106.33;58.87;;;;;;;;;;4321689;33;20207;-58
2021/03/26 00:52:23;;;;;;;127.47;65.60;;;;;;;;;;4323788;33;20294;-58
2021/03/26 00:54:49;;;;;;;114.03;59.37;;;;;;;;;;4327455;33;20518;-57
2021/03/26 00:57:15;;;;;;;119.43;58.57;;;;;;;;;;4327785;33;20735;-58
2021/03/26 00:59:40;;;;;;;115.53;60.23;;;;;;;;;;4324328;33;20392;-56
2021/03/26 01:02:06;;;;;;;112.33;58.67;;;;;;;;;;4308776;33;20368;-56
2021/03/26 01:04:31;;;;;;;89.07;49.90;;;;;;;;;;4327656;33;20247;-56
2021/03/26 01:06:58;;;;;;;89.20;48.17;;;;;;;;;;4328088;33;20644;-53
2021/03/26 01:09:23;;;;;;;95.50;50.50;;;;;;;;;;4324919;33;20259;-55
2021/03/26 01:11:49;;;;;;;82.97;47.33;;;;;;;;;;4320522;33;20294;-54
2021/03/26 01:14:17;;;;;;;74.93;39.67;;;;;;;;;;4327277;33;20219;-54
2021/03/26 01:16:43;;;;;;;71.37;36.70;;;;;;;;;;4325654;33;20274;-54
2021/03/26 01:19:10;;;;;;;86.47;43.23;;;;;;;;;;4327137;33;20348;-54
2021/03/26 01:21:38;;;;;;;93.53;49.63;;;;;;;;;;4317068;33;20239;-55
2021/03/26 01:24:05;;;;;;;103.50;54.60;;;;;;;;;;4327973;33;20223;-55
2021/03/26 01:26:31;;;;;;;108.80;55.23;;;;;;;;;;4319039;33;20642;-55
2021/03/26 01:28:57;;;;;;;107.23;55.33;;;;;;;;;;4312968;33;20230;-55
2021/03/26 01:31:24;;;;;;;111.57;59.43;;;;;;;;;;4307977;33;20235;-56
2021/03/26 01:33:49;;;;;;;132.67;65.83;;;;;;;;;;4326636;33;20230;-55
2021/03/26 01:36:15;;;;;;;121.70;64.67;;;;;;;;;;4324324;33;20211;-56
2021/03/26 01:38:41;;;;;;;134.77;65.87;;;;;;;;;;4326400;33;20373;-56
2021/03/26 01:41:29;;;;;;;108.70;60.47;;;;;;;;;;4320926;33;20281;-56
2021/03/26 01:43:55;;;;;;;117.13;65.67;;;;;;;;;;4326485;33;20249;-55
2021/03/26 01:46:20;;;;;;;112.70;65.77;;;;;;;;;;4324493;33;20641;-55
2021/03/26 01:48:50;;;;;;;110.20;65.97;;;;;;;;;;4315922;33;20302;-55
2021/03/26 01:51:41;;;;;;;123.63;67.20;;;;;;;;;;4316322;33;20281;-55
2021/03/26 01:54:09;;;;;;;110.20;56.13;;;;;;;;;;4328747;33;20243;-56
2021/03/26 01:56:35;;;;;;;102.97;54.80;;;;;;;;;;4323499;33;20253;-55
2021/03/26 01:59:00;;;;;;;85.93;51.30;;;;;;;;;;4322956;33;20343;-55
2021/03/26 02:01:33;;;;;;;99.97;53.33;;;;;;;;;;4309475;33;20314;-55
2021/03/26 02:04:01;;;;;;;93.57;55.33;;;;;;;;;;4313438;33;20313;-56
2021/03/26 02:06:31;;;;;;;103.70;59.33;;;;;;;;;;4324251;33;20676;-55
2021/03/26 02:09:05;;;;;;;109.47;62.40;;;;;;;;;;4330409;33;20309;-56
2021/03/26 02:11:42;;;;;;;111.87;60.07;;;;;;;;;;4330466;33;20216;-55
2021/03/26 02:14:15;;;;;;;106.23;56.17;;;;;;;;;;4303090;33;20235;-56
2021/03/26 02:16:40;;;;;;;109.30;58.60;;;;;;;;;;4314221;33;20321;-56
2021/03/26 02:19:28;;;;;;;101.63;59.80;;;;;;;;;;4329465;33;20779;-56
2021/03/26 02:21:54;;;;;;;103.83;57.03;;;;;;;;;;4315284;33;20223;-56
2021/03/26 02:24:22;;;;;;;107.70;60.67;;;;;;;;;;4316309;33;20230;-55
2021/03/26 02:26:51;;;;;;;97.97;55.67;;;;;;;;;;4330231;33;20254;-57
2021/03/26 02:29:23;;;;;;;94.47;53.13;;;;;;;;;;4330386;33;20686;-57
2021/03/26 02:31:58;;;;;;;87.40;49.47;;;;;;;;;;4322466;33;20254;-57
2021/03/26 02:34:25;;;;;;;111.00;61.67;;;;;;;;;;4311381;33;20305;-56
2021/03/26 02:36:54;;;;;;;121.63;69.77;;;;;;;;;;4328382;33;20621;-56
2021/03/26 02:39:26;;;;;;;86.67;45.80;;;;;;;;;;4316678;33;21259;-57
2021/03/26 02:41:56;;;;;;;76.13;46.77;;;;;;;;;;4317718;33;20374;-57
2021/03/26 02:44:44;;;;;;;89.57;48.87;;;;;;;;;;4328826;33;20262;-57
2021/03/26 02:47:25;;;;;;;96.83;53.27;;;;;;;;;;4328511;33;20270;-57
2021/03/26 02:50:01;;;;;;;100.17;57.57;;;;;;;;;;4330594;33;20583;-57
2021/03/26 02:52:56;;;;;;;94.67;55.93;;;;;;;;;;4327273;33;20211;-57
2021/03/26 02:55:32;;;;;;;87.93;50.23;;;;;;;;;;4322715;33;20669;-56
2021/03/26 02:58:05;;;;;;;93.83;52.77;;;;;;;;;;4329878;33;20241;-57
2021/03/26 03:00:48;;;;;;;71.17;44.70;;;;;;;;;;4315599;33;20286;-56
2021/03/26 03:03:21;;;;;;;88.57;49.87;;;;;;;;;;4317379;33;20250;-55
2021/03/26 03:05:51;;;;;;;100.50;53.60;;;;;;;;;;4326755;33;20235;-54
2021/03/26 03:08:21;;;;;;;111.67;56.17;;;;;;;;;;4329919;33;20553;-54
2021/03/26 03:11:12;;;;;;;124.17;60.17;;;;;;;;;;4316609;33;20253;-54
2021/03/26 03:13:51;;;;;;;114.70;58.57;;;;;;;;;;4320915;33;20211;-55
2021/03/26 03:16:27;;;;;;;106.30;57.33;;;;;;;;;;4323322;33;20227;-54
2021/03/26 03:19:03;;;;;;;97.90;55.90;;;;;;;;;;4314598;33;20305;-54
2021/03/26 03:21:35;;;;;;;100.30;54.57;;;;;;;;;;4321124;33;20380;-54
2021/03/26 03:24:34;;;;;;;97.07;51.67;;;;;;;;;;4320601;33;20231;-53
2021/03/26 03:27:05;;;;;;;86.30;49.33;;;;;;;;;;4324557;33;20612;-54
2021/03/26 03:29:39;;;;;;;89.40;49.43;;;;;;;;;;4308510;33;20554;-52
2021/03/26 03:32:18;;;;;;;89.23;48.57;;;;;;;;;;4328261;33;20231;-55
2021/03/26 03:34:48;;;;;;;85.80;50.87;;;;;;;;;;4324562;33;20223;-55
2021/03/26 03:37:17;;;;;;;83.93;48.50;;;;;;;;;;4328249;33;20235;-55
2021/03/26 03:40:14;;;;;;;70.87;43.13;;;;;;;;;;4312156;33;20313;-54
2021/03/26 03:43:04;;;;;;;81.13;42.27;;;;;;;;;;4300907;33;20297;-54
2021/03/26 03:46:10;;;;;;;77.43;42.40;;;;;;;;;;4304171;33;20257;-56
2021/03/26 03:48:55;;;;;;;71.97;43.53;;;;;;;;;;4329339;33;20266;-55
2021/03/26 03:51:25;;;;;;;68.37;39.43;;;;;;;;;;4326156;33;20636;-56
2021/03/26 03:54:05;;;;;;;74.73;43.57;;;;;;;;;;4327833;33;20348;-55
2021/03/26 03:56:35;;;;;;;74.37;45.40;;;;;;;;;;4329142;33;20211;-54
2021/03/26 03:59:29;;;;;;;98.10;52.57;;;;;;;;;;4328991;33;20316;-56
2021/03/26 04:02:26;;;;;;;88.17;47.57;;;;;;;;;;4320113;33;20219;-57
2021/03/26 04:04:58;;;;;;;82.13;46.13;;;;;;;;;;4300261;33;20289;-55
2021/03/26 04:07:52;;;;;;;83.37;47.40;;;;;;;;;;4329396;33;20238;-56
2021/03/26 04:10:19;;;;;;;75.33;40.90;;;;;;;;;;4321754;33;20231;-56
2021/03/26 04:12:50;;;;;;;86.37;45.30;;;;;;;;;;4322943;33;20223;-54
2021/03/26 04:15:22;;;;;;;87.50;46.37;;;;;;;;;;4300836;33;20289;-54
2021/03/26 04:17:56;;;;;;;81.50;43.60;;;;;;;;;;4329204;33;20249;-55
2021/03/26 04:20:28;;;;;;;75.53;41.30;;;;;;;;;;4328492;33;20230;-54
2021/03/26 04:23:01;;;;;;;80.57;43.13;;;;;;;;;;4328981;33;21032;-54
2021/03/26 04:25:34;;;;;;;74.80;42.53;;;;;;;;;;4325551;33;20261;-55
2021/03/26 04:28:17;;;;;;;75.47;43.00;;;;;;;;;;4329231;33;20286;-54
2021/03/26 04:30:53;;;;;;;69.57;40.03;;;;;;;;;;4318710;33;20199;-53
2021/03/26 04:33:19;;;;;;;77.30;43.37;;;;;;;;;;4313031;33;20384;-54
2021/03/26 04:35:48;;;;;;;75.07;44.23;;;;;;;;;;4310084;33;20286;-57
2021/03/26 04:38:35;;;;;;;73.57;42.73;;;;;;;;;;4328729;33;20302;-54
2021/03/26 04:41:05;;;;;;;83.30;48.53;;;;;;;;;;4327925;33;20207;-54
2021/03/26 04:43:40;;;;;;;107.37;57.53;;;;;;;;;;4328896;33;20230;-53
2021/03/26 04:46:14;;;;;;;83.57;48.07;;;;;;;;;;4328489;33;20528;-56
2021/03/26 04:49:01;;;;;;;130.03;67.60;;;;;;;;;;4328552;33;20302;-58
2021/03/26 04:51:47;;;;;;;147.03;80.13;;;;;;;;;;4314335;33;20227;-57
2021/03/26 04:54:40;;;;;;;161.77;86.57;;;;;;;;;;4328409;33;20219;-57
2021/03/26 04:57:22;;;;;;;152.33;80.30;;;;;;;;;;4328077;33;20285;-56
2021/03/26 05:00:02;;;;;;;140.67;77.20;;;;;;;;;;4327818;33;20673;-54
2021/03/26 05:02:30;;;;;;;133.10;76.43;;;;;;;;;;4328082;33;20262;-54
2021/03/26 05:04:57;;;;;;;141.17;79.13;;;;;;;;;;4314568;33;20800;-54
2021/03/26 05:07:32;;;;;;;157.30;80.07;;;;;;;;;;4314875;33;20261;-56
2021/03/26 05:10:01;;;;;;;138.27;77.00;;;;;;;;;;4323032;33;20223;-55
2021/03/26 05:12:33;;;;;;;138.67;74.67;;;;;;;;;;4310280;33;20235;-56
2021/03/26 05:15:05;;;;;;;129.57;72.43;;;;;;;;;;4327916;33;20647;-57
2021/03/26 05:17:39;;;;;;;136.07;70.57;;;;;;;;;;4328251;33;20248;-56
2021/03/26 05:20:27;;;;;;;131.47;70.37;;;;;;;;;;4327942;33;21730;-55
2021/03/26 05:22:55;;;;;;;129.67;71.63;;;;;;;;;;4327511;33;20211;-56
2021/03/26 05:25:35;;;;;;;138.00;78.23;;;;;;;;;;4327626;33;20257;-55
2021/03/26 05:28:05;;;;;;;138.73;76.67;;;;;;;;;;4327028;33;20214;-56
2021/03/26 05:30:37;;;;;;;136.47;82.13;;;;;;;;;;4319880;33;20275;-55
2021/03/26 05:33:18;;;;;;;139.27;81.60;;;;;;;;;;4311908;33;20314;-56
2021/03/26 05:35:51;;;;;;;133.30;76.10;;;;;;;;;;4314709;33;20272;-55
2021/03/26 05:38:22;;;;;;;134.53;80.13;;;;;;;;;;4328297;33;20238;-55
2021/03/26 05:40:47;;;;;;;134.77;77.33;;;;;;;;;;4324893;33;20717;-55
2021/03/26 05:43:37;;;;;;;116.27;72.63;;;;;;;;;;4326526;33;20287;-55
2021/03/26 05:46:16;;;;;;;121.97;74.83;;;;;;;;;;4324744;33;20735;-56
2021/03/26 05:49:12;;;;;;;126.37;78.43;;;;;;;;;;4327875;33;20231;-55
2021/03/26 05:51:53;;;;;;;152.17;84.53;;;;;;;;;;4316965;33;20254;-56
2021/03/26 05:54:48;;;;;;;126.80;77.30;;;;;;;;;;4327500;33;20360;-56
2021/03/26 05:57:38;;;;;;;110.50;64.10;;;;;;;;;;4320956;33;20226;-54
2021/03/26 06:00:21;;;;;;;103.87;65.77;;;;;;;;;;4317028;33;20285;-54
2021/03/26 06:03:02;;;;;;;121.80;70.83;;;;;;;;;;4314413;33;20227;-58
2021/03/26 06:06:03;;;;;;;121.77;71.17;;;;;;;;;;4323886;33;20231;-56
2021/03/26 06:08:54;;;;;;;123.73;67.13;;;;;;;;;;4291335;33;20223;-55
2021/03/26 06:11:45;;;;;;;137.90;75.07;;;;;;;;;;4317588;33;20413;-57
2021/03/26 06:14:39;;;;;;;139.47;74.27;;;;;;;;;;4321510;33;20704;-57
2021/03/26 06:17:42;;;;;;;127.07;73.73;;;;;;;;;;4307841;33;20219;-58
2021/03/26 06:20:56;;;;;;;139.37;80.13;;;;;;;;;;4319358;33;20360;-57
2021/03/26 06:23:41;;;;;;;145.83;86.37;;;;;;;;;;4250116;33;20327;-55
2021/03/26 06:26:18;;;;;;;148.27;85.73;;;;;;;;;;4323653;33;20582;-57
2021/03/26 06:29:08;;;;;;;130.67;78.83;;;;;;;;;;4311925;33;20630;-56
2021/03/26 06:32:05;;;;;;;117.83;68.67;;;;;;;;;;4324600;33;20222;-57
2021/03/26 06:34:55;;;;;;;119.30;68.77;;;;;;;;;;4273646;33;20216;-57
2021/03/26 06:37:52;;;;;;;133.73;74.13;;;;;;;;;;4319125;33;20211;-55
2021/03/26 06:40:22;;;;;;;122.03;72.20;;;;;;;;;;4329450;33;20245;-55
2021/03/26 06:43:08;;;;;;;122.17;69.77;;;;;;;;;;4329533;33;20245;-56
2021/03/26 06:45:43;;;;;;;97.03;63.80;;;;;;;;;;4328319;33;20273;-56
2021/03/26 06:48:34;;;;;;;96.73;63.23;;;;;;;;;;4329220;33;20298;-55
2021/03/26 06:51:12;;;;;;;96.13;60.63;;;;;;;;;;4323563;33;20329;-57
2021/03/26 06:54:02;;;;;;;88.20;51.97;;;;;;;;;;4324082;33;20596;-57
2021/03/26 06:56:52;;;;;;;93.47;55.40;;;;;;;;;;4327624;33;20241;-58
2021/03/26 06:59:35;;;;;;;102.53;56.77;;;;;;;;;;4315466;33;20351;-57
2021/03/26 07:02:33;;;;;;;102.93;58.40;;;;;;;;;;4320473;33;20628;-55
2021/03/26 07:05:28;;;;;;;84.13;45.17;;;;;;;;;;4327114;33;20377;-57
2021/03/26 07:08:08;;;;;;;68.73;43.77;;;;;;;;;;4313925;33;20303;-58
2021/03/26 07:10:37;;;;;;;73.93;43.57;;;;;;;;;;4321811;33;20222;-57
2021/03/26 07:13:21;;;;;;;80.40;38.70;;;;;;;;;;4328589;33;20848;-57
2021/03/26 07:15:59;;;;;;;67.43;38.07;;;;;;;;;;4325089;33;20281;-56
2021/03/26 07:18:46;;;;;;;66.57;36.50;;;;;;;;;;4321661;33;20607;-57
2021/03/26 07:21:29;;;;;;;65.67;35.33;;;;;;;;;;4324970;33;20223;-55
2021/03/26 07:24:27;;;;;;;97.10;50.47;;;;;;;;;;4327277;33;20242;-56
2021/03/26 07:27:06;;;;;;;61.13;34.97;;;;;;;;;;4293054;33;20290;-55
2021/03/26 07:30:02;;;;;;;51.33;32.40;;;;;;;;;;4320064;33;20245;-55
2021/03/26 07:32:36;;;;;;;52.90;33.80;;;;;;;;;;4319223;33;20215;-55
2021/03/26 07:35:23;;;;;;;50.40;31.83;;;;;;;;;;4315540;33;20380;-56
2021/03/26 07:38:30;;;;;;;55.93;30.07;;;;;;;;;;4312938;33;20380;-56
2021/03/26 07:41:13;;;;;;;63.67;36.73;;;;;;;;;;4297142;33;20231;-58
2021/03/26 07:44:37;;;;;;;56.80;34.57;;;;;;;;;;4312404;33;20348;-57
2021/03/26 07:47:34;;;;;;;66.63;34.90;;;;;;;;;;4279154;33;20393;-56
2021/03/26 07:50:24;;;;;;;68.20;37.10;;;;;;;;;;4321016;33;20304;-57
2021/03/26 07:53:18;;;;;;;43.83;26.10;;;;;;;;;;4325321;33;20370;-58
2021/03/26 07:56:09;;;;;;;58.83;30.00;;;;;;;;;;4326859;33;20227;-58
2021/03/26 07:58:52;;;;;;;47.67;32.20;;;;;;;;;;4325529;33;20208;-56
2021/03/26 08:01:51;;;;;;;44.80;29.97;;;;;;;;;;4326246;33;20227;-56
2021/03/26 08:04:25;;;;;;;43.70;25.80;;;;;;;;;;4333721;33;20257;-57
2021/03/26 08:06:51;;;;;;;43.73;25.63;;;;;;;;;;4324059;33;20624;-57
2021/03/26 08:09:41;;;;;;;47.27;29.90;;;;;;;;;;4312129;33;20306;-56
2021/03/26 08:12:37;;;;;;;39.37;25.77;;;;;;;;;;4314092;33;20239;-56
2021/03/26 08:16:00;;;;;;;55.70;29.07;;;;;;;;;;4323309;33;20211;-57
2021/03/26 08:18:31;;;;;;;45.70;29.07;;;;;;;;;;4278953;33;20270;-58
2021/03/26 08:21:29;;;;;;;45.47;27.33;;;;;;;;;;4318059;33;20363;-58
2021/03/26 08:24:48;;;;;;;51.37;29.93;;;;;;;;;;4313640;33;20340;-58
2021/03/26 08:27:35;;;;;;;37.70;23.53;;;;;;;;;;4280234;33;20215;-58
2021/03/26 08:30:33;;;;;;;39.20;24.30;;;;;;;;;;4316925;33;20219;-58
2021/03/26 08:36:40;;;;;;;46.23;27.90;;;;;;;;;;4314428;33;20277;-58
2021/03/26 08:39:57;;;;;;;37.00;23.90;;;;;;;;;;4317555;33;20249;-59
2021/03/26 08:42:26;;;;;;;37.67;22.37;;;;;;;;;;4298106;33;20749;-59
2021/03/26 08:45:15;;;;;;;39.93;21.70;;;;;;;;;;4317723;33;20227;-58
2021/03/26 08:48:02;;;;;;;34.60;21.67;;;;;;;;;;4321106;33;20250;-59
2021/03/26 08:50:54;;;;;;;31.40;20.27;;;;;;;;;;4317413;33;20214;-58
2021/03/26 08:53:26;;;;;;;29.03;19.33;;;;;;;;;;4317265;33;21174;-58
2021/03/26 08:56:09;;;;;;;30.23;20.57;;;;;;;;;;4325011;33;20492;-58
2021/03/26 08:58:56;;;;;;;29.70;21.03;;;;;;;;;;4317979;33;20261;-58
2021/03/26 09:01:56;;;;;;;31.80;20.67;;;;;;;;;;4315751;33;20500;-59
2021/03/26 09:04:43;;;;;;;348.10;265.20;;;;;;;;;;4319247;33;20619;-58
2021/03/26 09:07:32;;;;;;;54.13;34.90;;;;;;;;;;4315137;33;20277;-58
2021/03/26 09:10:06;;;;;;;56.40;30.37;;;;;;;;;;4324642;33;20245;-58
2021/03/26 09:12:34;;;;;;;45.17;24.93;;;;;;;;;;4323571;33;20487;-58
2021/03/26 09:15:28;;;;;;;30.73;17.40;;;;;;;;;;4317710;33;20601;-58
2021/03/26 09:18:05;;;;;;;31.83;19.87;;;;;;;;;;4326143;33;20242;-58
2021/03/26 09:21:31;;;;;;;30.83;18.87;;;;;;;;;;4325001;33;20203;-59
2021/03/26 09:24:15;;;;;;;37.37;22.70;;;;;;;;;;4277629;33;20275;-58
2021/03/26 09:26:56;;;;;;;23.10;16.27;;;;;;;;;;4316299;33;20341;-58
2021/03/26 09:29:44;;;;;;;20.73;13.63;;;;;;;;;;4321916;33;20254;-58
2021/03/26 09:32:23;;;;;;;19.83;13.87;;;;;;;;;;4323342;33;20745;-59
2021/03/26 09:35:04;;;;;;;21.43;13.73;;;;;;;;;;4319380;33;20245;-59
2021/03/26 09:38:03;;;;;;;24.90;12.77;;;;;;;;;;4309237;33;20294;-58
2021/03/26 09:40:41;;;;;;;21.90;14.33;;;;;;;;;;4310506;33;20265;-58
2021/03/26 09:43:49;;;;;;;38.70;18.37;;;;;;;;;;4320544;33;20596;-57
2021/03/26 09:46:17;;;;;;;28.90;16.97;;;;;;;;;;4300696;33;20229;-57
2021/03/26 09:49:07;;;;;;;25.00;14.40;;;;;;;;;;4310236;33;20290;-57
2021/03/26 09:51:46;;;;;;;23.20;14.40;;;;;;;;;;4314172;33;20325;-57
2021/03/26 09:54:40;;;;;;;24.50;14.03;;;;;;;;;;4308071;33;20274;-57
2021/03/26 09:57:21;;;;;;;45.50;24.43;;;;;;;;;;4318612;33;20203;-56
2021/03/26 09:59:56;;;;;;;24.27;15.73;;;;;;;;;;4308908;33;20254;-56
2021/03/26 10:02:39;;;;;;;37.43;20.03;;;;;;;;;;4322199;33;20261;-57
2021/03/26 10:05:20;;;;;;;57.13;28.07;;;;;;;;;;4317132;33;20239;-56
2021/03/26 10:11:23;;;;;;;197.23;71.93;;;;;;;;;;4315278;33;20265;-56
2021/03/26 10:13:58;;;;;;;37.80;18.43;;;;;;;;;;4316874;33;20703;-56
2021/03/26 10:16:47;;;;;;;116.73;47.77;;;;;;;;;;4323260;33;20612;-57
2021/03/26 10:19:17;;;;;;;51.50;24.63;;;;;;;;;;4317406;33;20277;-56
2021/03/26 10:21:55;;;;;;;141.53;57.10;;;;;;;;;;4318459;33;20300;-57
2021/03/26 10:24:25;;;;;;;46.57;23.63;;;;;;;;;;4328886;33;20384;-57
2021/03/26 10:26:59;;;;;;;29.80;18.20;;;;;;;;;;4329249;33;20599;-57
2021/03/26 10:29:44;;;;;;;21.23;14.73;;;;;;;;;;4325369;33;20226;-57
2021/03/26 10:32:31;;;;;;;24.17;15.20;;;;;;;;;;4327738;33;20848;-57
2021/03/26 10:35:11;;;;;;;20.63;14.90;;;;;;;;;;4323442;33;20235;-56
2021/03/26 10:37:50;;;;;;;22.80;14.57;;;;;;;;;;4328788;33;20711;-56
2021/03/26 10:40:34;;;;;;;30.33;13.33;;;;;;;;;;4329077;33;20683;-57
2021/03/26 10:43:22;;;;;;;19.27;13.90;;;;;;;;;;4313844;33;20232;-56
2021/03/26 10:46:12;;;;;;;57.07;14.47;;;;;;;;;;4322154;33;20632;-57
2021/03/26 10:48:37;;;;;;;18.83;11.87;;;;;;;;;;4331800;33;20238;-58
2021/03/26 10:51:30;;;;;;;20.93;12.60;;;;;;;;;;4318150;33;20258;-57
2021/03/26 10:54:09;;;;;;;56.87;28.97;;;;;;;;;;4315279;33;20331;-57
2021/03/26 10:56:37;;;;;;;16.87;11.90;;;;;;;;;;4322895;33;20337;-59
2021/03/26 10:59:20;;;;;;;18.90;12.43;;;;;;;;;;4311066;33;20226;-59
2021/03/26 11:01:49;;;;;;;24.77;13.10;;;;;;;;;;4326493;33;20667;-57
2021/03/26 11:04:28;;;;;;;14.73;11.33;;;;;;;;;;4327641;33;20255;-57
2021/03/26 11:07:11;;;;;;;22.10;13.70;;;;;;;;;;4315339;33;20645;-57
2021/03/26 11:09:41;;;;;;;32.47;21.10;;;;;;;;;;4322808;33;20219;-58
2021/03/26 11:12:19;;;;;;;19.20;14.10;;;;;;;;;;4319832;33;20278;-58
2021/03/26 11:15:14;;;;;;;38.13;20.93;;;;;;;;;;4304736;33;20266;-58
2021/03/26 11:18:21;;;;;;;18.80;12.03;;;;;;;;;;4326592;33;20760;-58
2021/03/26 11:21:11;;;;;;;24.47;14.63;;;;;;;;;;4298666;33;20231;-58
2021/03/26 11:23:39;;;;;;;14.07;10.10;;;;;;;;;;4320896;33;20247;-59
2021/03/26 11:26:04;;;;;;;16.17;11.70;;;;;;;;;;4317536;33;20204;-58
2021/03/26 11:29:02;;;;;;;20.73;13.10;;;;;;;;;;4313803;33;20258;-58
2021/03/26 11:31:48;;;;;;;19.80;13.30;;;;;;;;;;4308757;33;20274;-56
2021/03/26 11:34:23;;;;;;;20.20;13.50;;;;;;;;;;4317570;33;20234;-58
2021/03/26 11:36:48;;;;;;;18.33;12.43;;;;;;;;;;4313854;33;20321;-58
2021/03/26 11:39:38;;;;;;;20.60;10.47;;;;;;;;;;4320282;33;20256;-58
2021/03/26 11:42:07;;;;;;;18.70;10.23;;;;;;;;;;4320237;33;20215;-58
2021/03/26 11:44:38;;;;;;;15.63;10.97;;;;;;;;;;4314419;33;20286;-59
2021/03/26 11:47:29;;;;;;;17.20;13.37;;;;;;;;;;4322849;33;20566;-58
2021/03/26 11:50:30;;;;;;;18.87;14.67;;;;;;;;;;4304799;33;20298;-58
2021/03/26 11:52:59;;;;;;;27.10;17.17;;;;;;;;;;4323162;33;20269;-59
2021/03/26 11:55:54;;;;;;;112.20;70.53;;;;;;;;;;4317173;33;20231;-58
2021/03/26 11:58:27;;;;;;;29.17;17.27;;;;;;;;;;4324383;33;20781;-58
2021/03/26 12:01:02;;;;;;;17.80;12.33;;;;;;;;;;4315420;33;20259;-58
2021/03/26 12:03:37;;;;;;;33.23;24.50;;;;;;;;;;4322281;33;20305;-58
2021/03/26 12:06:17;;;;;;;24.03;13.43;;;;;;;;;;4315390;33;20222;-57
2021/03/26 12:08:52;;;;;;;22.10;16.30;;;;;;;;;;4323631;33;20240;-58
2021/03/26 12:11:21;;;;;;;19.57;10.50;;;;;;;;;;4313445;33;20710;-58
2021/03/26 12:14:05;;;;;;;17.67;12.10;;;;;;;;;;4312658;33;20232;-57
2021/03/26 12:16:40;;;;;;;15.80;11.50;;;;;;;;;;4314170;33;20226;-58
2021/03/26 12:19:15;;;;;;;26.90;16.77;;;;;;;;;;4310471;33;20267;-59
2021/03/26 12:22:06;;;;;;;21.27;11.67;;;;;;;;;;4319723;33;20774;-59
2021/03/26 12:24:46;;;;;;;14.97;10.77;;;;;;;;;;4304202;33;20333;-58
2021/03/26 12:27:41;;;;;;;15.07;10.87;;;;;;;;;;4323800;33;20234;-58
2021/03/26 12:30:16;;;;;;;20.97;10.90;;;;;;;;;;4302211;33;20243;-58
2021/03/26 12:32:47;;;;;;;179.93;65.37;;;;;;;;;;4302018;33;20218;-59
2021/03/26 12:35:28;;;;;;;177.27;81.50;;;;;;;;;;4317792;33;20720;-59
2021/03/26 12:38:18;;;;;;;29.97;18.47;;;;;;;;;;4305252;33;20223;-58
2021/03/26 12:40:47;;;;;;;16.17;11.40;;;;;;;;;;4309993;33;20610;-59
2021/03/26 12:43:19;;;;;;;12.63;9.87;;;;;;;;;;4312205;33;20290;-58
2021/03/26 12:45:54;;;;;;;10.97;9.17;;;;;;;;;;4312320;33;20758;-58
2021/03/26 12:48:23;;;;;;;13.93;9.40;;;;;;;;;;4312820;33;20631;-58
2021/03/26 12:50:59;;;;;;;15.80;9.03;;;;;;;;;;4322884;33;20212;-60
2021/03/26 12:53:34;;;;;;;11.03;8.50;;;;;;;;;;4322584;33;20322;-59
2021/03/26 12:56:20;;;;;;;12.97;8.80;;;;;;;;;;4324234;33;20273;-58
2021/03/26 12:59:14;;;;;;;11.73;8.67;;;;;;;;;;4325317;33;20230;-59
2021/03/26 13:01:57;;;;;;;15.07;9.47;;;;;;;;;;4326935;33;20746;-58
2021/03/26 13:04:25;;;;;;;12.60;8.70;;;;;;;;;;4320887;33;20755;-58
2021/03/26 13:06:56;;;;;;;22.53;11.63;;;;;;;;;;4330771;33;20267;-57
2021/03/26 13:09:28;;;;;;;15.83;9.40;;;;;;;;;;4325435;33;20573;-59
2021/03/26 13:12:27;;;;;;;15.03;11.07;;;;;;;;;;4317794;33;20824;-58
2021/03/26 13:15:26;;;;;;;13.90;8.97;;;;;;;;;;4320748;33;20258;-59
2021/03/26 13:18:24;;;;;;;12.70;9.30;;;;;;;;;;4311034;33;20305;-58
2021/03/26 13:21:18;;;;;;;14.23;9.17;;;;;;;;;;4287835;33;20345;-59
2021/03/26 13:23:46;;;;;;;15.03;8.53;;;;;;;;;;4308523;33;20389;-59
2021/03/26 13:26:18;;;;;;;13.90;10.07;;;;;;;;;;4324792;33;20664;-59
2021/03/26 13:28:55;;;;;;;10.30;8.63;;;;;;;;;;4321173;33;20269;-59
2021/03/26 13:31:38;;;;;;;21.03;8.63;;;;;;;;;;4324806;33;20464;-59
2021/03/26 13:34:19;;;;;;;18.17;10.03;;;;;;;;;;4311162;33;20258;-57
2021/03/26 13:37:22;;;;;;;11.13;8.40;;;;;;;;;;4320514;33;20309;-56
2021/03/26 13:40:12;;;;;;;14.87;9.17;;;;;;;;;;4319905;33;20226;-59
2021/03/26 13:42:52;;;;;;;14.40;8.97;;;;;;;;;;4324171;33;20286;-58
2021/03/26 13:45:23;;;;;;;36.57;13.17;;;;;;;;;;4317326;33;20764;-58
2021/03/26 13:48:07;;;;;;;26.97;14.80;;;;;;;;;;4313576;33;20255;-57
2021/03/26 13:50:35;;;;;;;18.97;10.87;;;;;;;;;;4327890;33;20667;-58
2021/03/26 13:53:32;;;;;;;12.70;8.97;;;;;;;;;;4328218;33;20301;-58
2021/03/26 13:56:16;;;;;;;22.90;13.00;;;;;;;;;;4330029;33;20242;-59
2021/03/26 13:58:48;;;;;;;15.60;11.73;;;;;;;;;;4316917;33;20247;-58
2021/03/26 14:01:43;;;;;;;19.60;11.83;;;;;;;;;;4325505;33;20296;-58
2021/03/26 14:04:24;;;;;;;18.07;11.73;;;;;;;;;;4325314;33;20644;-58
2021/03/26 14:07:17;;;;;;;14.33;8.50;;;;;;;;;;4322688;33;20333;-57
2021/03/26 14:10:13;;;;;;;11.57;8.23;;;;;;;;;;4329021;33;20223;-57
2021/03/26 14:12:41;;;;;;;15.40;9.37;;;;;;;;;;4327902;33;20277;-57
2021/03/26 14:15:16;;;;;;;13.57;10.37;;;;;;;;;;4317603;33;20297;-59
2021/03/26 14:17:45;;;;;;;24.03;13.80;;;;;;;;;;4327854;33;20585;-58
2021/03/26 14:20:23;;;;;;;18.27;8.30;;;;;;;;;;4309625;33;20309;-59
2021/03/26 14:23:00;;;;;;;20.87;12.43;;;;;;;;;;4322842;33;20235;-58
2021/03/26 14:25:40;;;;;;;13.23;9.13;;;;;;;;;;4319566;33;20395;-58
2021/03/26 14:28:29;;;;;;;17.73;8.93;;;;;;;;;;4322568;33;20223;-58
2021/03/26 14:31:17;;;;;;;21.27;12.23;;;;;;;;;;4315532;33;20224;-58
2021/03/26 14:34:17;;;;;;;38.13;16.70;;;;;;;;;;4325458;33;20235;-57
2021/03/26 14:37:09;;;;;;;20.30;14.47;;;;;;;;;;4311185;33;20733;-57
2021/03/26 14:39:37;;;;;;;11.37;8.90;;;;;;;;;;4323116;33;20617;-58
2021/03/26 14:42:50;;;;;;;35.23;12.50;;;;;;;;;;4328103;33;20328;-58
2021/03/26 14:45:25;;;;;;;18.07;9.20;;;;;;;;;;4325586;33;20262;-58
2021/03/26 14:48:00;;;;;;;25.30;8.67;;;;;;;;;;4334538;33;20285;-58
2021/03/26 14:50:27;;;;;;;11.33;7.63;;;;;;;;;;4301229;33;20263;-58
2021/03/26 14:53:00;;;;;;;15.97;9.77;;;;;;;;;;4324055;33;20250;-58
2021/03/26 14:55:36;;;;;;;19.53;10.27;;;;;;;;;;4320864;33;20310;-57
2021/03/26 14:58:12;;;;;;;18.23;10.70;;;;;;;;;;4321378;33;20234;-57
2021/03/26 15:01:11;;;;;;;13.80;8.47;;;;;;;;;;4325266;33;20674;-57
2021/03/26 15:03:50;;;;;;;15.77;8.80;;;;;;;;;;4321381;33;20234;-57
2021/03/26 15:06:38;;;;;;;14.40;9.50;;;;;;;;;;4327686;33;20346;-58
2021/03/26 15:09:06;;;;;;;12.87;9.47;;;;;;;;;;4329213;33;20231;-58
2021/03/26 15:11:32;;;;;;;11.80;8.30;;;;;;;;;;4328727;33;20265;-57
2021/03/26 15:14:19;;;;;;;13.60;8.53;;;;;;;;;;4314835;33;20263;-58
2021/03/26 15:17:05;;;;;;;16.00;11.60;;;;;;;;;;4328748;33;20506;-58
2021/03/26 15:19:33;;;;;;;21.57;11.20;;;;;;;;;;4329080;33;20432;-58
2021/03/26 15:22:01;;;;;;;19.23;11.10;;;;;;;;;;4328533;33;20282;-59
2021/03/26 15:24:54;;;;;;;14.20;8.67;;;;;;;;;;4328758;33;20231;-59
2021/03/26 15:28:01;;;;;;;17.27;10.40;;;;;;;;;;4314295;33;20562;-58
2021/03/26 15:30:50;;;;;;;13.17;10.23;;;;;;;;;;4327103;33;20294;-58
2021/03/26 15:33:26;;;;;;;23.60;10.07;;;;;;;;;;4329039;33;20589;-59